Fairford, United Kingdom
Current Conditions -  °F | °C
As of 5:48 PM on Monday 24 Nov 2014 (Local Time) from EGVA Reporting Station
Haze Haze  
Wind Chill: 37°   Ceiling: Unl
Heat Index: 37°   Visibility: 1.5mi
Dew Point: 36°   Wind: 0mph
Humidity: 93%   Direction: NA
Pressure: 30.32"   Gusts: NA
Location:  51.71°N, 1.78°W
Report Text: EGVA 241748Z AUTO 00000KT 2400 R27/0800 BR CLR 03/02 A3032 RMK AO2 VIS 1200V2400 VIS 1200 RWY27 $
Loading
Personal Weather Stations






























Interactive Weather Map New forecast layout! Learn more

10-Day Weather Forecast

Advertisements
Track Severe Weather on mobile